Nearby METAR Reports

 

KOJC - Olathe/Executive, Kansas, USA
Distance from station: S 9mi, 15km
Updated: Thu, 15-Nov-2018 1:53am CST
Clear
Clear
 Wind from calm
Wind: Calm
Temperature: 21°F , -6°C
Dew Point: 16°F , -9°C
Humidity: 80%
Barometer: 30.23 inHg , 1023.7 hPa
Clouds: Clear
Visibility: 10 miles , 16 km
2018/11/15 07:53 KOJC 150753Z AUTO 00000KT 10SM CLR M06/M09 A3023 RMK AO2 SLP249 T10561089
KMKC - Kansas City/Dntn, Missouri, USA
Distance from station: NE 12mi, 20km
Updated: Thu, 15-Nov-2018 1:54am CST
Clear
Clear
 Wind from SW
Wind: SW 6 mph , 9 km/h
Temperature: 25°F , -4°C
Wind Chill: 18°F , -8°C
Dew Point: 16°F , -9°C
Humidity: 69%
Barometer: 30.25 inHg , 1024.4 hPa
Clouds: Clear
Visibility: 10 miles , 16 km
2018/11/15 07:54 KMKC 150754Z 23005KT 10SM CLR M04/M09 A3025 RMK AO2 SLP250 T10441094
 
KIXD - Olathe/Industria, Kansas, USA
Distance from station: SSW 14mi, 22km
Updated: Thu, 15-Nov-2018 1:53am CST
Clear
Clear
 Wind from SSE
Wind: SSE 5 mph , 7 km/h
Temperature: 21°F , -6°C
Wind Chill: 14°F , -10°C
Dew Point: 16°F , -9°C
Humidity: 80%
Barometer: 30.23 inHg , 1023.7 hPa
Clouds: Clear
Visibility: 10 miles , 16 km
2018/11/15 07:53 KIXD 150753Z AUTO 15004KT 10SM CLR M06/M09 A3023 RMK AO2 SLP248 T10611094
KLXT - Lees Summit Muni, Missouri, USA
Distance from station: E 21mi, 33km
Updated: Thu, 15-Nov-2018 1:53am CST
Clear
Clear
 Wind from WSW
Wind: WSW 7 mph , 11 km/h
Temperature: 21°F , -6°C
Wind Chill: 12°F , -11°C
Dew Point: 14°F , -10°C
Humidity: 74%
Barometer: 30.23 inHg , 1023.7 hPa
Clouds: Clear
Visibility: 10 miles , 16 km
2018/11/15 07:53 KLXT 150753Z AUTO 25006KT 10SM CLR M06/M10 A3023 RMK AO2 SLP249 T10611100
 
KMCI - Kansas City/Intl, Missouri, USA
Distance from station: N 22mi, 35km
Updated: Thu, 15-Nov-2018 1:53am CST
Clear
Clear
 Wind from S
Wind: S 8 mph , 13 km/h
Temperature: 19°F , -7°C
Wind Chill: 9°F , -13°C
Dew Point: 14°F , -10°C
Humidity: 79%
Barometer: 30.22 inHg , 1023.4 hPa
Clouds: Clear
Visibility: 10 miles , 16 km
2018/11/15 07:53 KMCI 150753Z 17007KT 10SM CLR M07/M10 A3022 RMK AO2 SLP244 T10671100
KLWC - Lawrence, Kansas, USA
Distance from station: W 25mi, 40km
Updated: Thu, 15-Nov-2018 2:52am CST
Clear
Clear
 Wind from calm
Wind: Calm
Temperature: 21°F , -6°C
Dew Point: 16°F , -9°C
Humidity: 80%
Barometer: 30.22 inHg , 1023.4 hPa
Clouds: Clear
Visibility: 10 miles , 16 km
2018/11/15 08:52 KLWC 150852Z AUTO 00000KT 10SM CLR M06/M09 A3022 RMK AO2 SLP241 T10611089 58019 TSNO
 
KGPH - Mosby, Missouri, USA
Distance from station: NE 34mi, 54km
Updated: Thu, 15-Nov-2018 2:55am CST
Clear
Clear
 Wind from calm
Wind: Calm
Temperature: 19°F , -7°C
Dew Point: 18°F , -8°C
Humidity: 93%
Barometer: 30.23 inHg , 1023.7 hPa
Clouds: Clear
Visibility: 10 miles , 16 km
2018/11/15 08:55 KGPH 150855Z AUTO 00000KT 10SM CLR M07/M08 A3023 RMK AO2
KTOP - Topeka, Kansas, USA
Distance from station: W 48mi, 77km
Updated: Thu, 15-Nov-2018 1:53am CST
Clear
Clear
 Wind from calm
Wind: Calm
Temperature: 25°F , -4°C
Dew Point: 16°F , -9°C
Humidity: 69%
Barometer: 30.23 inHg , 1023.7 hPa
Clouds: Clear
Visibility: 10 miles , 16 km
2018/11/15 07:53 KTOP 150753Z 00000KT 10SM CLR M04/M09 A3023 RMK AO2 SLP245 T10441094
 
KFOE - Topeka/Forbes, Kansas, USA
Distance from station: W 48mi, 78km
Updated: Wed, 14-Nov-2018 10:53pm CST
NOT Current
Clear
Clear
 Wind from SSE
Wind: SSE 3 mph , 6 km/h
Temperature: 25°F , -4°C
Dew Point: 18°F , -8°C
Humidity: 74%
Barometer: 30.27 inHg , 1025.1 hPa
Clouds: Clear
Visibility: 10 miles , 16 km
2018/11/15 04:53 KFOE 150453Z AUTO 15003KT 10SM CLR M04/M08 A3027 RMK AO2 SLP261 T10441083 TSNO